Time;durP1;ratioP1;P1;durP2;ratioP2;P2;SDS_P1;SDS_P2;PMS_P1;PMS_P2;Temp;Humidity;BMP_temperature;BMP_pressure;BME280_temperature;BME280_humidity;BME280_pressure;Samples;Min_cycle;Max_cycle;Signal;HPM_P1;HPM_P2
2022/12/28 00:01:10;;;;;;;9.27;5.40;;;7.20;99.90;;;;;;5037915;28;20035;-65
2022/12/28 00:03:36;;;;;;;11.05;5.30;;;7.20;99.80;;;;;;5038673;28;20030;-65
2022/12/28 00:06:02;;;;;;;12.00;5.55;;;7.20;99.50;;;;;;5037167;28;20086;-65
2022/12/28 00:08:28;;;;;;;11.40;4.80;;;7.20;99.10;;;;;;5040582;28;20028;-65
2022/12/28 00:10:59;;;;;;;10.90;5.07;;;7.20;98.90;;;;;;5041775;28;20104;-65
2022/12/28 00:13:25;;;;;;;10.45;4.93;;;7.20;98.80;;;;;;5041602;28;20100;-65
2022/12/28 00:15:50;;;;;;;12.93;5.38;;;7.20;98.60;;;;;;5041409;28;20129;-64
2022/12/28 00:18:16;;;;;;;7.38;4.10;;;7.30;98.50;;;;;;5043959;28;20033;-64
2022/12/28 00:20:41;;;;;;;8.73;4.30;;;7.30;98.40;;;;;;5044350;28;20025;-64
2022/12/28 00:23:07;;;;;;;7.63;4.25;;;7.30;98.40;;;;;;5043473;28;20036;-64
2022/12/28 00:25:35;;;;;;;10.82;4.82;;;7.30;98.30;;;;;;5044611;28;20152;-64
2022/12/28 00:28:01;;;;;;;9.82;4.75;;;7.30;98.30;;;;;;5033549;28;20100;-64
2022/12/28 00:30:27;;;;;;;7.55;5.25;;;7.30;98.10;;;;;;5032058;28;20052;-64
2022/12/28 00:32:52;;;;;;;10.55;5.00;;;7.30;97.90;;;;;;5030206;28;20033;-64
2022/12/28 00:35:18;;;;;;;10.82;5.18;;;7.30;97.80;;;;;;5031387;28;20029;-64
2022/12/28 00:37:43;;;;;;;10.27;4.70;;;7.30;97.60;;;;;;5030513;28;20028;-65
2022/12/28 00:40:09;;;;;;;8.70;4.32;;;7.30;97.50;;;;;;5032144;28;20075;-65
2022/12/28 00:42:35;;;;;;;7.15;4.63;;;7.30;97.50;;;;;;5032292;28;20025;-64
2022/12/28 00:45:00;;;;;;;10.52;5.30;;;7.30;97.60;;;;;;5030341;28;20061;-64
2022/12/28 00:47:26;;;;;;;9.38;4.63;;;7.40;97.60;;;;;;5019834;28;20065;-65
2022/12/28 00:49:51;;;;;;;10.25;5.13;;;7.40;97.50;;;;;;5030332;28;20034;-65
2022/12/28 00:52:17;;;;;;;6.93;4.15;;;7.30;97.10;;;;;;5030707;28;20037;-65
2022/12/28 00:54:42;;;;;;;7.32;4.30;;;7.30;97.00;;;;;;5025999;28;20030;-64
2022/12/28 00:57:08;;;;;;;13.73;5.10;;;7.40;97.00;;;;;;5030488;28;20037;-65
2022/12/28 00:59:33;;;;;;;8.88;4.78;;;7.40;96.90;;;;;;5031607;28;20045;-65
2022/12/28 01:01:59;;;;;;;9.80;4.63;;;7.40;96.80;;;;;;5031582;28;20025;-65
2022/12/28 01:04:24;;;;;;;6.75;4.15;;;7.40;96.70;;;;;;5030548;28;20483;-65
2022/12/28 01:06:50;;;;;;;8.00;4.18;;;7.40;96.60;;;;;;5030587;28;20675;-65
2022/12/28 01:09:15;;;;;;;7.85;4.30;;;7.40;96.60;;;;;;5029213;28;20476;-65
2022/12/28 01:11:41;;;;;;;9.15;4.07;;;7.50;96.50;;;;;;5023554;28;20392;-64
2022/12/28 01:14:07;;;;;;;8.05;4.13;;;7.50;96.50;;;;;;5028611;28;20021;-65
2022/12/28 01:16:34;;;;;;;7.65;4.18;;;7.50;96.40;;;;;;5031144;28;20124;-65
2022/12/28 01:19:03;;;;;;;7.93;4.30;;;7.50;96.20;;;;;;5029696;28;20029;-65
2022/12/28 01:21:31;;;;;;;5.93;3.97;;;7.50;96.00;;;;;;5023400;28;20472;-65
2022/12/28 01:24:00;;;;;;;8.75;4.53;;;7.50;95.90;;;;;;5030000;28;20032;-65
2022/12/28 01:26:27;;;;;;;8.73;4.57;;;7.50;95.90;;;;;;5023235;28;20057;-65
2022/12/28 01:28:52;;;;;;;9.10;5.45;;;7.50;95.80;;;;;;5030985;28;20033;-65
2022/12/28 01:31:19;;;;;;;5.95;4.10;;;7.50;95.60;;;;;;5022034;28;20484;-65
2022/12/28 01:33:45;;;;;;;7.13;4.30;;;7.50;95.60;;;;;;5016119;28;20022;-65
2022/12/28 01:36:13;;;;;;;8.15;4.80;;;7.50;95.70;;;;;;5029211;28;20029;-65
2022/12/28 01:38:39;;;;;;;8.75;4.93;;;7.60;95.70;;;;;;5024511;28;20083;-65
2022/12/28 01:41:14;;;;;;;9.68;5.40;;;7.60;95.60;;;;;;5029484;28;20029;-65
2022/12/28 01:44:09;;;;;;;7.03;4.80;;;7.60;95.40;;;;;;5028551;28;20484;-65
2022/12/28 01:46:40;;;;;;;7.57;4.43;;;7.60;95.40;;;;;;5027553;28;20056;-65
2022/12/28 01:49:19;;;;;;;9.45;4.90;;;7.60;95.30;;;;;;5030879;28;20124;-65
2022/12/28 01:52:37;;;;;;;6.20;4.70;;;7.70;95.40;;;;;;5029590;28;20033;-65
2022/12/28 01:55:05;;;;;;;9.38;4.70;;;7.70;95.60;;;;;;5043059;28;20040;-65
2022/12/28 01:57:37;;;;;;;7.70;4.75;;;7.80;95.20;;;;;;5028825;28;20051;-65
2022/12/28 02:00:05;;;;;;;;;;;7.80;95.30;;;;;;5030871;28;20028;-65
2022/12/28 02:02:31;;;;;;;7.10;4.57;;;7.80;95.20;;;;;;5027694;28;20050;-66
2022/12/28 02:04:58;;;;;;;8.93;4.75;;;7.80;95.50;;;;;;5029941;28;20053;-66
2022/12/28 02:07:51;;;;;;;6.55;4.10;;;7.80;95.10;;;;;;5028948;28;20025;-65
2022/12/28 02:10:18;;;;;;;6.57;4.50;;;7.80;95.20;;;;;;5029723;28;20028;-65
2022/12/28 02:12:45;;;;;;;10.48;5.10;;;7.90;95.30;;;;;;5029649;28;20021;-65
2022/12/28 02:15:11;;;;;;;7.57;4.50;;;7.90;95.30;;;;;;5030030;28;20033;-66
2022/12/28 02:17:36;;;;;;;7.47;4.80;;;7.90;95.10;;;;;;5030462;28;20017;-65
2022/12/28 02:20:03;;;;;;;8.07;5.20;;;8.00;95.10;;;;;;5030257;28;20045;-66
2022/12/28 02:23:11;;;;;;;6.97;4.93;;;8.00;95.00;;;;;;5028402;28;20017;-65
2022/12/28 02:26:15;;;;;;;10.00;5.25;;;7.90;94.90;;;;;;5027276;28;20048;-65
2022/12/28 02:29:04;;;;;;;7.60;4.53;;;8.00;94.90;;;;;;5024573;28;20037;-66
2022/12/28 02:31:50;;;;;;;5.90;4.03;;;7.90;94.80;;;;;;5028008;28;20103;-66
2022/12/28 02:34:35;;;;;;;8.32;4.68;;;8.00;95.00;;;;;;5021565;28;20040;-65
2022/12/28 02:37:08;;;;;;;8.23;5.13;;;8.00;95.00;;;;;;5026439;28;20512;-65
2022/12/28 02:39:44;;;;;;;6.43;4.55;;;8.00;95.00;;;;;;5029671;28;20379;-65
2022/12/28 02:42:11;;;;;;;9.65;5.20;;;8.00;95.00;;;;;;5029717;28;20415;-65
2022/12/28 02:50:09;;;;;;;6.55;4.63;;;8.00;95.10;;;;;;5028527;28;20080;-66
2022/12/28 02:52:55;;;;;;;7.22;4.57;;;8.00;95.20;;;;;;5028863;28;20037;-65
2022/12/28 02:58:51;;;;;;;10.73;5.72;;;8.00;95.60;;;;;;5025335;28;20128;-65
2022/12/28 03:02:04;;;;;;;9.38;4.68;;;8.00;95.90;;;;;;4991402;28;20121;-66
2022/12/28 03:04:47;;;;;;;9.70;5.82;;;8.00;96.10;;;;;;5025282;28;20025;-65
2022/12/28 03:10:19;;;;;;;7.05;5.03;;;7.90;96.60;;;;;;5019275;28;20099;-65
2022/12/28 03:13:41;;;;;;;7.28;5.22;;;7.90;96.90;;;;;;5024765;28;20018;-65
2022/12/28 03:15:56;;;;;;;7.35;5.45;;;7.90;97.00;;;;;;5024538;28;20034;-65
2022/12/28 03:32:18;;;;;;;9.35;7.40;;;7.80;98.20;;;;;;5023821;28;20081;-66
2022/12/28 03:34:44;;;;;;;6.32;5.15;;;7.80;98.40;;;;;;5024488;28;20034;-66
2022/12/28 03:37:26;;;;;;;7.72;6.30;;;7.90;98.70;;;;;;5028693;28;20026;-66
2022/12/28 03:39:56;;;;;;;10.55;6.95;;;7.90;98.70;;;;;;5026039;28;20478;-66
2022/12/28 03:45:55;;;;;;;9.55;5.20;;;7.90;98.90;;;;;;5028300;28;20055;-65
2022/12/28 03:48:22;;;;;;;8.50;5.70;;;7.90;99.10;;;;;;5027999;28;20396;-66
2022/12/28 03:50:48;;;;;;;8.50;6.55;;;7.90;99.10;;;;;;5026117;28;20037;-66
2022/12/28 03:53:17;;;;;;;6.25;4.97;;;7.90;99.10;;;;;;5027130;28;20022;-65
2022/12/28 03:55:43;;;;;;;10.48;7.10;;;7.90;99.30;;;;;;5029040;28;20037;-65
2022/12/28 03:58:08;;;;;;;8.68;6.00;;;7.90;99.30;;;;;;5026623;28;20029;-66
2022/12/28 04:00:34;;;;;;;7.22;5.10;;;8.00;99.40;;;;;;5026907;28;20542;-65
2022/12/28 04:02:59;;;;;;;7.25;5.18;;;8.00;99.50;;;;;;5030102;28;20029;-66
2022/12/28 04:05:25;;;;;;;8.20;6.40;;;8.10;99.50;;;;;;5032851;28;20049;-66
2022/12/28 04:07:50;;;;;;;10.57;6.68;;;8.00;99.50;;;;;;5031870;28;20065;-67
2022/12/28 04:10:16;;;;;;;7.15;5.30;;;8.10;99.60;;;;;;5031574;28;20080;-66
2022/12/28 04:12:42;;;;;;;6.97;5.80;;;8.10;99.60;;;;;;5032130;28;20036;-66
2022/12/28 04:15:07;;;;;;;8.25;5.40;;;8.10;99.70;;;;;;5032169;28;20037;-66
2022/12/28 04:17:33;;;;;;;7.65;6.57;;;8.20;99.70;;;;;;5030039;28;20033;-66
2022/12/28 04:19:59;;;;;;;7.63;5.97;;;8.20;99.60;;;;;;5030824;28;20040;-66
2022/12/28 04:22:24;;;;;;;8.93;5.82;;;8.20;99.70;;;;;;5029983;28;20051;-66
2022/12/28 04:24:50;;;;;;;7.18;6.13;;;8.20;99.70;;;;;;5032485;28;20033;-66
2022/12/28 04:27:15;;;;;;;7.95;6.47;;;8.20;99.80;;;;;;5030810;28;20025;-66
2022/12/28 04:29:41;;;;;;;7.22;5.85;;;8.20;99.80;;;;;;5031509;28;20022;-66
2022/12/28 04:32:06;;;;;;;7.72;6.15;;;8.20;99.90;;;;;;5030180;28;20046;-66
2022/12/28 04:34:32;;;;;;;7.00;5.57;;;8.20;99.90;;;;;;5026336;28;20029;-66
2022/12/28 04:36:57;;;;;;;9.40;5.95;;;8.30;99.90;;;;;;5031371;28;20033;-66
2022/12/28 04:39:23;;;;;;;10.25;5.85;;;8.30;99.90;;;;;;5031326;28;20494;-66
2022/12/28 04:41:49;;;;;;;8.30;6.40;;;8.30;99.90;;;;;;5029058;28;20038;-66
2022/12/28 04:44:14;;;;;;;7.05;5.30;;;8.30;99.90;;;;;;5030956;28;20017;-66
2022/12/28 04:46:40;;;;;;;8.45;5.53;;;8.30;99.90;;;;;;5029399;28;20025;-66
2022/12/28 04:49:05;;;;;;;8.05;5.43;;;8.40;99.90;;;;;;5029165;28;20105;-66
2022/12/28 04:51:31;;;;;;;7.90;5.80;;;8.40;99.90;;;;;;5031531;28;20055;-66
2022/12/28 04:53:57;;;;;;;7.78;6.10;;;8.40;99.90;;;;;;5031850;28;20021;-66
2022/12/28 04:56:25;;;;;;;7.97;5.93;;;8.40;99.90;;;;;;5030847;28;20026;-66
2022/12/28 04:58:55;;;;;;;6.88;5.60;;;8.40;99.90;;;;;;5030532;28;20057;-66
2022/12/28 05:01:21;;;;;;;6.57;5.80;;;8.40;99.90;;;;;;5032061;28;20041;-66
2022/12/28 05:03:47;;;;;;;10.40;7.43;;;8.50;99.90;;;;;;5029471;28;20032;-66
2022/12/28 05:06:17;;;;;;;9.23;6.60;;;8.50;99.90;;;;;;5027806;28;20030;-66
2022/12/28 05:08:43;;;;;;;9.05;6.00;;;8.50;99.90;;;;;;5031276;28;20037;-65
2022/12/28 05:11:18;;;;;;;8.63;6.57;;;8.50;99.90;;;;;;5031851;28;20104;-65
2022/12/28 05:13:44;;;;;;;10.07;7.13;;;8.50;99.90;;;;;;5027326;28;20022;-65
2022/12/28 05:16:12;;;;;;;9.88;6.95;;;8.50;99.90;;;;;;5031636;28;20033;-65
2022/12/28 05:18:38;;;;;;;9.80;6.82;;;8.50;99.90;;;;;;5030642;28;20034;-65
2022/12/28 05:21:11;;;;;;;8.85;6.68;;;8.50;99.90;;;;;;5031618;28;20044;-65
2022/12/28 05:23:37;;;;;;;9.65;7.22;;;8.60;99.90;;;;;;5023655;28;20037;-65
2022/12/28 05:26:04;;;;;;;9.50;7.18;;;8.60;99.90;;;;;;5029689;28;20049;-66
2022/12/28 05:28:30;;;;;;;10.70;8.60;;;8.60;99.90;;;;;;5030175;28;20026;-66
2022/12/28 05:31:00;;;;;;;6.93;5.95;;;8.60;99.90;;;;;;5022392;28;20088;-65
2022/12/28 05:33:29;;;;;;;9.38;7.35;;;8.70;99.90;;;;;;5038369;28;20075;-66
2022/12/28 05:35:55;;;;;;;13.40;9.35;;;8.70;99.90;;;;;;5026549;28;20034;-66
2022/12/28 05:38:20;;;;;;;9.20;7.75;;;8.70;99.90;;;;;;5029778;28;20112;-65
2022/12/28 05:40:46;;;;;;;8.82;7.00;;;8.70;99.90;;;;;;5021131;28;20030;-65
2022/12/28 05:43:11;;;;;;;8.48;6.47;;;8.70;99.90;;;;;;5024292;28;20024;-65
2022/12/28 05:45:37;;;;;;;8.18;5.75;;;8.70;99.90;;;;;;5030467;28;20037;-65
2022/12/28 05:48:02;;;;;;;7.55;6.53;;;8.80;99.90;;;;;;5029686;28;20027;-65
2022/12/28 05:50:28;;;;;;;9.65;6.28;;;8.80;99.90;;;;;;5025342;28;20103;-65
2022/12/28 05:52:53;;;;;;;8.32;7.05;;;8.80;99.90;;;;;;5029634;28;20037;-65
2022/12/28 05:55:19;;;;;;;9.25;6.72;;;8.80;99.90;;;;;;5029750;28;20033;-66
2022/12/28 05:57:44;;;;;;;7.05;5.90;;;8.80;99.90;;;;;;5030314;28;20704;-66
2022/12/28 06:00:10;;;;;;;8.57;6.55;;;8.90;99.90;;;;;;5026289;28;20029;-65
2022/12/28 06:02:36;;;;;;;8.38;6.22;;;8.90;99.90;;;;;;5030455;28;20088;-65
2022/12/28 06:05:01;;;;;;;8.48;6.32;;;8.90;99.90;;;;;;5029464;28;20026;-65
2022/12/28 06:07:27;;;;;;;7.30;5.68;;;8.90;99.90;;;;;;5029460;28;20026;-65
2022/12/28 06:09:52;;;;;;;9.23;6.90;;;8.90;99.90;;;;;;5029714;28;20022;-65
2022/12/28 06:12:18;;;;;;;10.55;6.38;;;8.90;99.90;;;;;;5029153;28;20396;-66
2022/12/28 06:14:43;;;;;;;7.30;5.90;;;8.90;99.90;;;;;;5029320;28;20484;-66
2022/12/28 06:17:09;;;;;;;5.60;5.03;;;9.00;99.90;;;;;;5028880;28;20495;-66
2022/12/28 06:19:35;;;;;;;7.95;6.80;;;9.00;99.90;;;;;;5026413;28;20080;-66
2022/12/28 06:22:00;;;;;;;8.77;6.22;;;9.00;99.90;;;;;;5019041;28;20112;-66
2022/12/28 06:24:26;;;;;;;6.80;5.18;;;9.00;99.90;;;;;;5026007;28;20049;-65
2022/12/28 06:26:51;;;;;;;7.45;6.35;;;9.00;99.90;;;;;;5029159;28;20033;-66
2022/12/28 06:29:17;;;;;;;6.30;5.03;;;9.00;99.90;;;;;;5028643;28;20025;-66
2022/12/28 06:31:46;;;;;;;5.50;5.00;;;9.00;99.90;;;;;;5024227;28;20029;-66
2022/12/28 06:34:12;;;;;;;6.40;5.55;;;9.10;99.90;;;;;;5021143;28;20049;-66
2022/12/28 06:36:40;;;;;;;7.90;6.00;;;9.10;99.90;;;;;;5027932;28;20076;-66
2022/12/28 06:39:09;;;;;;;5.57;4.90;;;9.10;99.90;;;;;;5028312;28;20054;-66
2022/12/28 06:41:35;;;;;;;5.85;5.00;;;9.10;99.90;;;;;;5029583;28;20076;-66
2022/12/28 06:44:05;;;;;;;7.47;5.38;;;9.10;99.90;;;;;;5027538;28;20021;-66
2022/12/28 06:46:30;;;;;;;7.13;5.10;;;9.10;99.90;;;;;;5029738;28;20570;-66
2022/12/28 06:48:56;;;;;;;6.68;5.43;;;9.10;99.90;;;;;;5027009;28;20030;-66
2022/12/28 06:51:24;;;;;;;5.38;4.55;;;9.10;99.90;;;;;;5028739;28;20428;-66
2022/12/28 06:53:52;;;;;;;7.13;5.53;;;9.20;99.90;;;;;;5027191;28;20202;-66
2022/12/28 06:56:29;;;;;;;7.78;5.47;;;9.20;99.90;;;;;;5028043;28;20021;-65
2022/12/28 06:58:56;;;;;;;6.60;5.15;;;9.20;99.90;;;;;;5028102;28;20025;-65
2022/12/28 07:01:30;;;;;;;7.03;5.38;;;9.20;99.90;;;;;;5028894;28;20025;-66
2022/12/28 07:03:57;;;;;;;5.18;4.68;;;9.20;99.90;;;;;;5029334;28;20562;-66
2022/12/28 07:06:24;;;;;;;6.75;5.18;;;9.20;99.90;;;;;;5027379;28;20052;-66
2022/12/28 07:08:56;;;;;;;5.55;4.60;;;9.30;99.90;;;;;;5022013;28;20037;-65
2022/12/28 07:11:21;;;;;;;5.35;4.45;;;9.30;99.90;;;;;;5025051;28;20048;-66
2022/12/28 07:13:47;;;;;;;5.45;4.70;;;9.30;99.90;;;;;;5028118;28;20651;-67
2022/12/28 07:16:20;;;;;;;6.72;4.68;;;9.30;99.90;;;;;;5033097;28;20036;-67
2022/12/28 07:18:46;;;;;;;6.53;4.70;;;9.40;99.90;;;;;;5024059;28;20646;-67
2022/12/28 07:21:14;;;;;;;6.07;4.60;;;9.40;99.90;;;;;;5028736;28;20041;-67
2022/12/28 07:23:40;;;;;;;5.28;4.38;;;9.40;99.90;;;;;;5028022;28;20013;-66
2022/12/28 07:26:10;;;;;;;6.28;4.88;;;9.40;99.90;;;;;;5028775;28;20044;-66
2022/12/28 07:28:37;;;;;;;6.70;5.75;;;9.40;99.90;;;;;;5022572;28;20028;-66
2022/12/28 07:31:08;;;;;;;7.55;5.40;;;9.40;99.90;;;;;;5019466;28;20026;-65
2022/12/28 07:33:35;;;;;;;5.43;4.53;;;9.40;99.90;;;;;;5025548;28;20112;-65
2022/12/28 07:36:02;;;;;;;5.28;4.50;;;9.40;99.90;;;;;;5028625;28;20041;-66
2022/12/28 07:38:27;;;;;;;6.40;4.68;;;9.40;99.90;;;;;;5029641;28;20013;-66
2022/12/28 07:41:03;;;;;;;6.50;4.45;;;9.40;99.90;;;;;;5028667;28;20022;-66
2022/12/28 07:43:29;;;;;;;5.53;4.30;;;9.40;99.90;;;;;;5028006;28;20088;-66
2022/12/28 07:46:09;;;;;;;6.25;5.65;;;9.40;99.90;;;;;;5032265;28;20539;-66
2022/12/28 07:48:36;;;;;;;6.57;4.95;;;9.40;99.90;;;;;;5025754;28;20064;-65
2022/12/28 07:51:13;;;;;;;7.80;5.78;;;9.40;99.90;;;;;;5030779;28;20021;-65
2022/12/28 07:53:39;;;;;;;5.80;5.18;;;9.40;99.90;;;;;;5028515;28;20033;-65
2022/12/28 07:56:06;;;;;;;5.10;4.60;;;9.40;99.90;;;;;;5030429;28;20498;-66
2022/12/28 07:58:31;;;;;;;6.45;5.05;;;9.50;99.90;;;;;;5029901;28;20395;-65
2022/12/28 08:01:07;;;;;;;7.07;5.45;;;9.40;99.90;;;;;;5030977;28;20025;-65
2022/12/28 08:03:34;;;;;;;7.05;5.47;;;9.50;99.90;;;;;;5019233;28;20037;-66
2022/12/28 08:06:04;;;;;;;9.85;4.72;;;9.50;99.90;;;;;;5025710;28;20037;-66
2022/12/28 08:08:30;;;;;;;5.70;4.40;;;9.50;99.90;;;;;;5023007;28;20038;-66
2022/12/28 08:10:55;;;;;;;4.93;4.43;;;9.50;99.90;;;;;;5022129;28;20423;-66
2022/12/28 08:13:21;;;;;;;6.85;5.03;;;9.60;99.90;;;;;;5028645;28;20017;-66
2022/12/28 08:15:54;;;;;;;6.03;4.53;;;9.60;99.90;;;;;;5032220;28;20507;-67
2022/12/28 08:18:19;;;;;;;6.43;4.82;;;9.60;99.90;;;;;;5030077;28;20026;-68
2022/12/28 08:20:45;;;;;;;7.03;4.97;;;9.60;99.90;;;;;;5022292;28;20033;-67
2022/12/28 08:23:10;;;;;;;7.57;5.20;;;9.60;99.90;;;;;;5020745;28;20037;-67
2022/12/28 08:25:36;;;;;;;5.47;4.90;;;9.60;99.90;;;;;;5031875;28;20036;-67
2022/12/28 08:28:01;;;;;;;6.82;5.00;;;9.60;99.90;;;;;;5026069;28;20115;-68
2022/12/28 08:30:27;;;;;;;8.77;6.05;;;9.60;99.90;;;;;;5024712;28;20029;-68
2022/12/28 08:32:52;;;;;;;9.43;5.78;;;9.60;99.90;;;;;;5029671;28;20360;-68
2022/12/28 08:35:18;;;;;;;5.63;5.00;;;9.60;99.90;;;;;;5026084;28;20028;-67
2022/12/28 08:37:43;;;;;;;5.78;5.18;;;9.60;99.90;;;;;;5029119;28;20421;-68
2022/12/28 08:40:10;;;;;;;7.68;5.97;;;9.70;99.90;;;;;;5026805;28;20124;-68
2022/12/28 08:42:35;;;;;;;5.70;4.90;;;9.70;99.90;;;;;;5030067;28;20392;-68
2022/12/28 08:45:01;;;;;;;9.32;6.50;;;9.70;99.90;;;;;;5030504;28;20021;-68
2022/12/28 08:47:26;;;;;;;7.40;5.35;;;9.70;99.90;;;;;;5030123;28;20032;-68
2022/12/28 08:49:52;;;;;;;8.93;6.43;;;9.70;99.90;;;;;;5027603;28;20026;-68
2022/12/28 08:52:17;;;;;;;6.25;4.90;;;9.60;99.90;;;;;;5027003;28;20137;-67
2022/12/28 08:54:43;;;;;;;6.65;5.03;;;9.70;99.90;;;;;;5030488;28;20119;-68
2022/12/28 08:57:08;;;;;;;7.55;5.45;;;9.70;99.90;;;;;;5028715;28;20116;-68
2022/12/28 08:59:34;;;;;;;6.95;5.20;;;9.70;99.90;;;;;;5030286;28;20101;-67
2022/12/28 09:01:59;;;;;;;9.68;6.47;;;9.70;99.90;;;;;;5024367;28;20029;-68
2022/12/28 09:04:25;;;;;;;6.97;5.85;;;9.80;99.90;;;;;;5028876;28;20026;-68
2022/12/28 09:06:51;;;;;;;6.88;5.10;;;9.80;99.90;;;;;;5025552;28;20091;-67
2022/12/28 09:09:20;;;;;;;7.28;4.68;;;9.80;99.90;;;;;;5025554;28;20053;-68
2022/12/28 09:11:47;;;;;;;5.38;4.88;;;9.70;99.90;;;;;;5029104;28;20060;-68
2022/12/28 09:14:14;;;;;;;5.88;4.40;;;9.80;99.90;;;;;;5030594;28;20025;-68
2022/12/28 09:16:39;;;;;;;5.63;4.30;;;9.80;99.90;;;;;;5016420;28;20084;-68
2022/12/28 09:19:08;;;;;;;5.35;4.55;;;9.80;99.90;;;;;;5040320;28;20022;-68
2022/12/28 09:21:36;;;;;;;6.70;4.40;;;9.80;99.90;;;;;;5026888;28;20033;-68
2022/12/28 09:24:02;;;;;;;6.28;4.25;;;9.80;99.90;;;;;;5027846;28;20518;-68
2022/12/28 09:26:30;;;;;;;7.47;5.05;;;9.80;99.90;;;;;;5020358;28;20049;-68
2022/12/28 09:28:58;;;;;;;5.18;4.25;;;9.80;99.90;;;;;;5017895;28;20033;-68
2022/12/28 09:31:26;;;;;;;4.97;3.72;;;9.80;99.90;;;;;;5028731;28;20029;-68
2022/12/28 09:34:01;;;;;;;5.55;4.57;;;9.70;99.90;;;;;;5027287;28;20025;-68
2022/12/28 09:36:41;;;;;;;6.70;4.70;;;9.70;99.90;;;;;;5024459;28;20021;-68
2022/12/28 09:39:19;;;;;;;6.13;4.50;;;9.80;99.90;;;;;;5027012;28;20026;-68
2022/12/28 09:41:49;;;;;;;5.72;4.05;;;9.80;99.90;;;;;;5023991;28;20068;-68
2022/12/28 09:45:02;;;;;;;7.18;5.25;;;9.80;99.90;;;;;;5038590;28;20617;-67
2022/12/28 09:47:35;;;;;;;6.03;4.40;;;9.80;99.90;;;;;;5023582;28;20025;-67
2022/12/28 09:50:16;;;;;;;7.10;5.07;;;9.80;99.90;;;;;;5023857;28;20500;-67
2022/12/28 09:53:04;;;;;;;9.82;6.32;;;9.80;99.90;;;;;;5025035;28;20045;-67
2022/12/28 09:55:34;;;;;;;10.25;5.30;;;9.80;99.90;;;;;;5038432;28;20096;-67
2022/12/28 09:58:03;;;;;;;8.00;4.75;;;9.70;99.90;;;;;;5026022;28;20025;-69
2022/12/28 10:00:45;;;;;;;6.45;4.90;;;9.70;99.90;;;;;;5021247;28;20065;-67
2022/12/28 10:03:25;;;;;;;;;;;9.80;99.90;;;;;;5019342;28;20113;-68
2022/12/28 10:05:54;;;;;;;9.20;4.80;;;9.70;99.90;;;;;;5020633;28;19965;-69
2022/12/28 10:08:22;;;;;;;8.63;5.75;;;9.80;99.90;;;;;;5020795;28;20026;-68
2022/12/28 10:10:50;;;;;;;5.30;4.30;;;9.80;99.90;;;;;;5028633;28;20411;-68
2022/12/28 10:13:21;;;;;;;6.60;4.18;;;9.80;99.90;;;;;;5025760;28;20025;-68
2022/12/28 10:15:48;;;;;;;7.43;5.55;;;9.80;99.90;;;;;;5027208;28;20112;-68
2022/12/28 10:18:18;;;;;;;6.22;3.80;;;9.80;99.90;;;;;;5025953;28;20104;-68
2022/12/28 10:20:44;;;;;;;8.25;5.47;;;9.80;99.90;;;;;;5026158;28;20018;-68
2022/12/28 10:23:18;;;;;;;8.77;6.03;;;9.80;99.90;;;;;;5025931;28;20048;-68
2022/12/28 10:25:45;;;;;;;6.60;4.70;;;9.80;99.90;;;;;;5026920;28;20057;-68
2022/12/28 10:28:11;;;;;;;5.85;4.20;;;9.80;99.90;;;;;;5026080;28;20037;-68
2022/12/28 10:30:46;;;;;;;4.65;3.70;;;9.80;99.90;;;;;;5028319;28;20014;-68
2022/12/28 10:33:17;;;;;;;4.47;3.30;;;9.80;99.90;;;;;;5023448;28;20034;-68
2022/12/28 10:35:52;;;;;;;5.40;4.40;;;9.90;99.90;;;;;;5026532;28;20037;-68
2022/12/28 10:38:26;;;;;;;7.10;4.95;;;9.90;99.90;;;;;;5021637;28;20078;-68
2022/12/28 10:41:05;;;;;;;4.50;4.10;;;9.90;99.90;;;;;;5021915;28;20088;-68
2022/12/28 10:43:35;;;;;;;7.78;4.80;;;9.90;99.90;;;;;;5026028;28;20060;-67
2022/12/28 10:46:02;;;;;;;5.38;4.10;;;9.80;99.90;;;;;;5026403;28;20067;-68
2022/12/28 10:48:34;;;;;;;4.70;3.72;;;9.80;99.90;;;;;;5025795;28;20052;-68
2022/12/28 10:51:11;;;;;;;5.40;4.28;;;9.90;99.90;;;;;;5021167;28;20040;-68
2022/12/28 10:53:46;;;;;;;5.80;4.72;;;9.90;99.90;;;;;;5020553;28;20025;-67
2022/12/28 10:56:12;;;;;;;5.57;4.18;;;9.90;99.90;;;;;;5020642;28;20041;-68
2022/12/28 10:58:50;;;;;;;7.40;5.30;;;9.90;99.90;;;;;;5022484;28;20018;-68
2022/12/28 11:01:22;;;;;;;9.35;4.68;;;10.00;99.90;;;;;;5023867;28;20465;-68
2022/12/28 11:04:04;;;;;;;5.45;4.38;;;10.00;99.90;;;;;;5025355;28;20114;-68
2022/12/28 11:06:35;;;;;;;6.40;4.25;;;9.90;99.90;;;;;;5025619;28;20044;-69
2022/12/28 11:09:03;;;;;;;4.82;3.88;;;9.90;99.90;;;;;;5027137;28;20025;-68
2022/12/28 11:11:29;;;;;;;6.30;3.78;;;9.90;99.90;;;;;;5022350;28;20037;-69
2022/12/28 11:14:08;;;;;;;4.60;3.58;;;9.90;99.90;;;;;;5024596;28;20033;-69
2022/12/28 11:16:36;;;;;;;5.05;3.90;;;10.00;99.90;;;;;;5019206;28;20029;-69
2022/12/28 11:19:02;;;;;;;4.97;4.32;;;9.90;99.90;;;;;;5023619;28;20036;-69
2022/12/28 11:21:27;;;;;;;4.53;3.67;;;10.00;99.90;;;;;;5024444;28;20021;-68
2022/12/28 11:23:53;;;;;;;3.30;3.00;;;10.00;99.90;;;;;;5021992;28;20643;-68
2022/12/28 11:26:20;;;;;;;4.07;3.00;;;10.00;99.90;;;;;;5024524;28;20042;-69
2022/12/28 11:28:48;;;;;;;3.20;2.90;;;10.00;99.90;;;;;;5022660;28;20044;-68
2022/12/28 11:31:48;;;;;;;4.07;2.80;;;10.00;99.90;;;;;;5026845;28;20437;-68
2022/12/28 11:34:19;;;;;;;4.05;2.75;;;10.00;99.90;;;;;;5023124;28;20033;-68
2022/12/28 11:36:46;;;;;;;3.50;3.20;;;10.00;99.90;;;;;;5022769;28;20414;-68
2022/12/28 11:39:24;;;;;;;3.17;2.40;;;10.00;99.90;;;;;;5024981;28;20108;-69
2022/12/28 11:41:51;;;;;;;4.00;3.55;;;10.00;99.90;;;;;;5023412;28;20591;-69
2022/12/28 11:44:21;;;;;;;3.35;2.70;;;10.00;99.90;;;;;;5024929;28;20108;-69
2022/12/28 11:47:19;;;;;;;2.80;2.50;;;10.00;99.90;;;;;;5022566;28;20496;-69
2022/12/28 11:49:46;;;;;;;3.10;2.80;;;10.00;99.90;;;;;;5025968;28;20403;-69
2022/12/28 11:52:22;;;;;;;2.72;2.45;;;10.00;99.90;;;;;;5023449;28;20018;-70
2022/12/28 11:54:54;;;;;;;3.13;2.33;;;10.00;99.90;;;;;;5025456;28;20032;-70
2022/12/28 11:57:40;;;;;;;2.93;2.27;;;10.00;99.90;;;;;;5020688;28;20033;-69
2022/12/28 12:00:18;;;;;;;5.45;2.55;;;10.00;99.90;;;;;;5022664;28;20268;-69
2022/12/28 12:02:47;;;;;;;2.72;2.42;;;10.10;99.90;;;;;;5028122;28;20038;-69
2022/12/28 12:05:36;;;;;;;2.60;2.28;;;10.10;99.90;;;;;;5028060;28;20025;-69
2022/12/28 12:08:10;;;;;;;2.40;2.20;;;10.10;99.90;;;;;;5025419;28;20515;-68
2022/12/28 12:10:38;;;;;;;2.20;2.10;;;10.10;99.90;;;;;;5020841;28;20029;-69
2022/12/28 12:13:25;;;;;;;2.53;2.30;;;10.10;99.90;;;;;;5020366;28;20033;-69
2022/12/28 12:16:00;;;;;;;2.60;2.40;;;10.10;99.90;;;;;;5023912;28;20040;-69
2022/12/28 12:18:28;;;;;;;3.63;2.83;;;10.10;99.90;;;;;;5021120;28;20931;-68
2022/12/28 12:20:57;;;;;;;3.45;2.55;;;10.20;99.90;;;;;;5026661;28;20033;-68
2022/12/28 12:23:43;;;;;;;3.70;2.80;;;10.10;99.90;;;;;;5028812;28;20053;-69
2022/12/28 12:26:19;;;;;;;3.22;2.67;;;10.10;99.90;;;;;;5030383;28;20025;-68
2022/12/28 12:28:51;;;;;;;5.00;2.90;;;10.10;99.90;;;;;;5031134;28;20025;-68
2022/12/28 12:31:34;;;;;;;3.13;2.70;;;10.20;99.90;;;;;;5035312;28;20032;-68
2022/12/28 12:34:13;;;;;;;3.90;2.80;;;10.20;99.90;;;;;;5027727;28;20049;-68
2022/12/28 12:37:04;;;;;;;3.95;2.70;;;10.20;99.90;;;;;;5025082;28;20026;-68
2022/12/28 12:39:38;;;;;;;3.83;2.50;;;10.20;99.90;;;;;;5026471;28;20380;-68
2022/12/28 12:42:27;;;;;;;3.85;2.58;;;10.20;99.90;;;;;;5023008;28;20018;-68
2022/12/28 12:44:53;;;;;;;5.13;3.50;;;10.20;99.90;;;;;;5029798;28;20025;-68
2022/12/28 12:47:24;;;;;;;3.80;2.75;;;10.20;99.90;;;;;;5026595;28;20035;-68
2022/12/28 12:50:27;;;;;;;6.43;3.85;;;10.10;99.90;;;;;;5030341;28;20040;-68
2022/12/28 12:52:53;;;;;;;;;;;10.20;99.90;;;;;;5024436;28;20404;-68
2022/12/28 12:55:57;;;;;;;5.00;3.58;;;10.10;99.90;;;;;;5027849;28;19909;-68
2022/12/28 12:58:41;;;;;;;5.32;2.78;;;10.20;99.90;;;;;;5026441;28;20032;-68
2022/12/28 13:01:21;;;;;;;4.93;3.00;;;10.20;99.90;;;;;;5028594;28;20113;-68
2022/12/28 13:03:49;;;;;;;4.93;3.00;;;10.20;99.90;;;;;;5029083;28;20044;-68
2022/12/28 13:06:22;;;;;;;4.63;3.50;;;10.20;99.80;;;;;;5026891;28;20021;-68
2022/12/28 13:09:02;;;;;;;4.05;2.95;;;10.20;99.70;;;;;;5024537;28;20091;-68
2022/12/28 13:11:30;;;;;;;7.22;3.42;;;10.20;99.70;;;;;;5027379;28;20036;-68
2022/12/28 13:13:56;;;;;;;7.10;3.45;;;10.20;99.60;;;;;;5029977;28;20514;-68
2022/12/28 13:16:24;;;;;;;5.00;3.70;;;10.20;99.50;;;;;;5028739;28;20029;-68
2022/12/28 13:19:01;;;;;;;6.35;3.72;;;10.20;99.40;;;;;;5028576;28;20021;-68
2022/12/28 13:21:30;;;;;;;4.65;3.30;;;10.20;99.30;;;;;;5025882;28;20021;-68
2022/12/28 13:23:55;;;;;;;7.43;3.75;;;10.20;99.30;;;;;;5021990;28;20697;-69
2022/12/28 13:26:27;;;;;;;5.30;3.72;;;10.20;99.20;;;;;;5017739;28;20077;-68
2022/12/28 13:29:00;;;;;;;6.63;3.65;;;10.20;99.20;;;;;;5021712;28;20074;-68
2022/12/28 13:31:38;;;;;;;7.53;3.70;;;10.20;99.10;;;;;;5026828;28;20040;-68
2022/12/28 13:34:15;;;;;;;5.53;3.53;;;10.20;99.00;;;;;;5027579;28;20035;-68
2022/12/28 13:36:56;;;;;;;7.65;3.40;;;10.20;99.00;;;;;;5025949;28;20026;-68
2022/12/28 13:39:27;;;;;;;9.32;3.80;;;10.20;99.00;;;;;;5026976;28;20032;-69
2022/12/28 13:41:58;;;;;;;9.48;4.15;;;10.20;98.80;;;;;;5027803;28;20095;-68